sensor_id;sensor_type;location;lat;lon;timestamp;P1;durP1;ratioP1;P2;durP2;ratioP2
85129;SDS011;75492;49.310;20.046;2024-03-06T00:02:48;15.25;;;8.55;;
85129;SDS011;75492;49.310;20.046;2024-03-06T00:07:51;17.73;;;8.10;;
85129;SDS011;75492;49.310;20.046;2024-03-06T00:12:52;15.38;;;7.57;;
85129;SDS011;75492;49.310;20.046;2024-03-06T00:17:54;17.17;;;8.85;;
85129;SDS011;75492;49.310;20.046;2024-03-06T00:22:56;15.57;;;8.15;;
85129;SDS011;75492;49.310;20.046;2024-03-06T00:27:58;17.73;;;8.75;;
85129;SDS011;75492;49.310;20.046;2024-03-06T00:32:59;15.70;;;8.52;;
85129;SDS011;75492;49.310;20.046;2024-03-06T00:38:02;15.68;;;7.75;;
85129;SDS011;75492;49.310;20.046;2024-03-06T00:43:03;17.38;;;8.45;;
85129;SDS011;75492;49.310;20.046;2024-03-06T00:48:05;16.63;;;8.50;;
85129;SDS011;75492;49.310;20.046;2024-03-06T00:53:08;18.10;;;8.55;;
85129;SDS011;75492;49.310;20.046;2024-03-06T00:58:10;18.30;;;9.50;;
85129;SDS011;75492;49.310;20.046;2024-03-06T01:03:11;18.88;;;9.38;;
85129;SDS011;75492;49.310;20.046;2024-03-06T01:08:14;17.23;;;7.95;;
85129;SDS011;75492;49.310;20.046;2024-03-06T01:13:15;28.83;;;14.20;;
85129;SDS011;75492;49.310;20.046;2024-03-06T01:18:16;28.60;;;13.93;;
85129;SDS011;75492;49.310;20.046;2024-03-06T01:23:19;22.92;;;11.80;;
85129;SDS011;75492;49.310;20.046;2024-03-06T01:28:21;19.73;;;9.60;;
85129;SDS011;75492;49.310;20.046;2024-03-06T01:33:22;22.17;;;11.25;;
85129;SDS011;75492;49.310;20.046;2024-03-06T01:38:25;23.17;;;9.20;;
85129;SDS011;75492;49.310;20.046;2024-03-06T01:43:27;19.80;;;9.82;;
85129;SDS011;75492;49.310;20.046;2024-03-06T01:48:28;24.40;;;11.63;;
85129;SDS011;75492;49.310;20.046;2024-03-06T01:53:32;29.48;;;14.77;;
85129;SDS011;75492;49.310;20.046;2024-03-06T01:58:35;19.52;;;11.07;;
85129;SDS011;75492;49.310;20.046;2024-03-06T02:03:37;22.15;;;11.45;;
85129;SDS011;75492;49.310;20.046;2024-03-06T02:08:39;39.25;;;18.17;;
85129;SDS011;75492;49.310;20.046;2024-03-06T02:13:41;29.20;;;12.00;;
85129;SDS011;75492;49.310;20.046;2024-03-06T02:18:51;17.98;;;8.65;;
85129;SDS011;75492;49.310;20.046;2024-03-06T02:23:54;33.28;;;15.77;;
85129;SDS011;75492;49.310;20.046;2024-03-06T02:28:55;23.85;;;10.38;;
85129;SDS011;75492;49.310;20.046;2024-03-06T02:33:57;23.52;;;11.10;;
85129;SDS011;75492;49.310;20.046;2024-03-06T02:38:59;19.83;;;11.23;;
85129;SDS011;75492;49.310;20.046;2024-03-06T02:44:01;25.95;;;11.82;;
85129;SDS011;75492;49.310;20.046;2024-03-06T02:49:02;28.30;;;14.32;;
85129;SDS011;75492;49.310;20.046;2024-03-06T02:54:05;31.25;;;13.95;;
85129;SDS011;75492;49.310;20.046;2024-03-06T02:59:07;33.13;;;17.33;;
85129;SDS011;75492;49.310;20.046;2024-03-06T03:04:09;35.22;;;16.40;;
85129;SDS011;75492;49.310;20.046;2024-03-06T03:09:12;39.17;;;16.02;;
85129;SDS011;75492;49.310;20.046;2024-03-06T03:14:14;46.25;;;14.18;;
85129;SDS011;75492;49.310;20.046;2024-03-06T03:19:15;36.20;;;15.63;;
85129;SDS011;75492;49.310;20.046;2024-03-06T03:24:18;35.55;;;15.43;;
85129;SDS011;75492;49.310;20.046;2024-03-06T03:29:19;30.35;;;13.68;;
85129;SDS011;75492;49.310;20.046;2024-03-06T03:34:20;37.75;;;16.17;;
85129;SDS011;75492;49.310;20.046;2024-03-06T03:39:24;32.58;;;15.82;;
85129;SDS011;75492;49.310;20.046;2024-03-06T03:44:26;34.60;;;14.25;;
85129;SDS011;75492;49.310;20.046;2024-03-06T03:49:27;29.42;;;15.98;;
85129;SDS011;75492;49.310;20.046;2024-03-06T03:54:30;37.65;;;16.67;;
85129;SDS011;75492;49.310;20.046;2024-03-06T03:59:31;36.97;;;16.13;;
85129;SDS011;75492;49.310;20.046;2024-03-06T04:04:33;42.75;;;17.75;;
85129;SDS011;75492;49.310;20.046;2024-03-06T04:09:35;40.28;;;16.30;;
85129;SDS011;75492;49.310;20.046;2024-03-06T04:14:37;30.85;;;14.23;;
85129;SDS011;75492;49.310;20.046;2024-03-06T04:19:38;30.85;;;14.40;;
85129;SDS011;75492;49.310;20.046;2024-03-06T04:24:42;27.25;;;13.88;;
85129;SDS011;75492;49.310;20.046;2024-03-06T04:29:43;33.28;;;14.98;;
85129;SDS011;75492;49.310;20.046;2024-03-06T04:34:44;36.03;;;16.50;;
85129;SDS011;75492;49.310;20.046;2024-03-06T04:39:47;35.47;;;16.90;;
85129;SDS011;75492;49.310;20.046;2024-03-06T04:44:49;33.63;;;14.82;;
85129;SDS011;75492;49.310;20.046;2024-03-06T04:49:50;37.28;;;14.50;;
85129;SDS011;75492;49.310;20.046;2024-03-06T04:54:53;36.58;;;15.80;;
85129;SDS011;75492;49.310;20.046;2024-03-06T04:59:54;37.10;;;16.33;;
85129;SDS011;75492;49.310;20.046;2024-03-06T05:04:56;45.92;;;16.88;;
85129;SDS011;75492;49.310;20.046;2024-03-06T05:09:58;38.67;;;15.93;;
85129;SDS011;75492;49.310;20.046;2024-03-06T05:15:00;33.35;;;15.18;;
85129;SDS011;75492;49.310;20.046;2024-03-06T05:20:02;31.48;;;15.13;;
85129;SDS011;75492;49.310;20.046;2024-03-06T05:25:06;37.35;;;16.75;;
85129;SDS011;75492;49.310;20.046;2024-03-06T05:30:07;31.90;;;15.63;;
85129;SDS011;75492;49.310;20.046;2024-03-06T05:35:09;27.27;;;14.23;;
85129;SDS011;75492;49.310;20.046;2024-03-06T05:40:12;30.83;;;13.23;;
85129;SDS011;75492;49.310;20.046;2024-03-06T05:45:14;34.80;;;15.07;;
85129;SDS011;75492;49.310;20.046;2024-03-06T05:50:15;46.97;;;20.92;;
85129;SDS011;75492;49.310;20.046;2024-03-06T05:55:18;47.95;;;20.70;;
85129;SDS011;75492;49.310;20.046;2024-03-06T06:00:19;31.63;;;14.65;;
85129;SDS011;75492;49.310;20.046;2024-03-06T06:05:21;37.13;;;17.75;;
85129;SDS011;75492;49.310;20.046;2024-03-06T06:10:24;33.22;;;13.57;;
85129;SDS011;75492;49.310;20.046;2024-03-06T06:15:25;39.25;;;15.52;;
85129;SDS011;75492;49.310;20.046;2024-03-06T06:20:27;32.17;;;14.93;;
85129;SDS011;75492;49.310;20.046;2024-03-06T06:25:29;35.67;;;15.10;;
85129;SDS011;75492;49.310;20.046;2024-03-06T06:30:31;30.30;;;15.63;;
85129;SDS011;75492;49.310;20.046;2024-03-06T06:35:33;28.73;;;15.68;;
85129;SDS011;75492;49.310;20.046;2024-03-06T06:40:35;29.70;;;14.93;;
85129;SDS011;75492;49.310;20.046;2024-03-06T06:45:37;25.42;;;11.93;;
85129;SDS011;75492;49.310;20.046;2024-03-06T06:50:38;29.63;;;13.35;;
85129;SDS011;75492;49.310;20.046;2024-03-06T06:55:41;27.15;;;12.23;;
85129;SDS011;75492;49.310;20.046;2024-03-06T07:00:42;27.40;;;12.90;;
85129;SDS011;75492;49.310;20.046;2024-03-06T07:05:44;35.75;;;15.48;;
85129;SDS011;75492;49.310;20.046;2024-03-06T07:10:46;34.13;;;15.02;;
85129;SDS011;75492;49.310;20.046;2024-03-06T07:15:48;29.63;;;13.07;;
85129;SDS011;75492;49.310;20.046;2024-03-06T07:20:49;28.63;;;16.80;;
85129;SDS011;75492;49.310;20.046;2024-03-06T07:25:52;30.90;;;14.63;;
85129;SDS011;75492;49.310;20.046;2024-03-06T07:30:53;25.30;;;10.80;;
85129;SDS011;75492;49.310;20.046;2024-03-06T07:35:55;33.58;;;13.80;;
85129;SDS011;75492;49.310;20.046;2024-03-06T07:40:57;26.15;;;10.95;;
85129;SDS011;75492;49.310;20.046;2024-03-06T07:45:59;48.47;;;18.60;;
85129;SDS011;75492;49.310;20.046;2024-03-06T07:51:00;32.75;;;14.65;;
85129;SDS011;75492;49.310;20.046;2024-03-06T07:56:03;25.88;;;11.70;;
85129;SDS011;75492;49.310;20.046;2024-03-06T08:01:05;31.17;;;11.65;;
85129;SDS011;75492;49.310;20.046;2024-03-06T08:06:07;25.73;;;11.70;;
85129;SDS011;75492;49.310;20.046;2024-03-06T08:11:10;28.88;;;13.13;;
85129;SDS011;75492;49.310;20.046;2024-03-06T08:16:11;28.25;;;13.13;;
85129;SDS011;75492;49.310;20.046;2024-03-06T08:21:12;23.55;;;12.25;;
85129;SDS011;75492;49.310;20.046;2024-03-06T08:26:15;27.65;;;13.23;;
85129;SDS011;75492;49.310;20.046;2024-03-06T08:31:16;24.08;;;11.57;;
85129;SDS011;75492;49.310;20.046;2024-03-06T08:36:18;27.42;;;11.93;;
85129;SDS011;75492;49.310;20.046;2024-03-06T08:41:21;19.70;;;11.20;;
85129;SDS011;75492;49.310;20.046;2024-03-06T08:46:23;22.25;;;11.75;;
85129;SDS011;75492;49.310;20.046;2024-03-06T08:51:24;14.15;;;7.30;;
85129;SDS011;75492;49.310;20.046;2024-03-06T08:56:27;20.23;;;9.07;;
85129;SDS011;75492;49.310;20.046;2024-03-06T09:01:32;23.10;;;10.57;;
85129;SDS011;75492;49.310;20.046;2024-03-06T09:06:37;21.70;;;11.15;;
85129;SDS011;75492;49.310;20.046;2024-03-06T09:11:45;22.95;;;9.88;;
85129;SDS011;75492;49.310;20.046;2024-03-06T09:16:49;26.30;;;11.52;;
85129;SDS011;75492;49.310;20.046;2024-03-06T09:21:55;22.52;;;10.82;;
85129;SDS011;75492;49.310;20.046;2024-03-06T09:27:01;21.55;;;11.23;;
85129;SDS011;75492;49.310;20.046;2024-03-06T09:32:06;22.77;;;11.60;;
85129;SDS011;75492;49.310;20.046;2024-03-06T09:43:08;20.23;;;9.88;;
85129;SDS011;75492;49.310;20.046;2024-03-06T09:48:12;29.17;;;11.98;;
85129;SDS011;75492;49.310;20.046;2024-03-06T09:53:16;25.58;;;11.10;;
85129;SDS011;75492;49.310;20.046;2024-03-06T09:58:24;25.40;;;11.43;;
85129;SDS011;75492;49.310;20.046;2024-03-06T10:03:26;22.88;;;10.57;;
85129;SDS011;75492;49.310;20.046;2024-03-06T10:08:27;26.90;;;12.93;;
85129;SDS011;75492;49.310;20.046;2024-03-06T10:13:30;31.45;;;14.68;;
85129;SDS011;75492;49.310;20.046;2024-03-06T10:18:31;25.77;;;12.52;;
85129;SDS011;75492;49.310;20.046;2024-03-06T10:23:34;27.55;;;11.35;;
85129;SDS011;75492;49.310;20.046;2024-03-06T10:28:37;22.63;;;11.10;;
85129;SDS011;75492;49.310;20.046;2024-03-06T10:33:38;26.48;;;11.75;;
85129;SDS011;75492;49.310;20.046;2024-03-06T10:38:39;26.38;;;10.70;;
85129;SDS011;75492;49.310;20.046;2024-03-06T10:43:46;27.13;;;11.98;;
85129;SDS011;75492;49.310;20.046;2024-03-06T10:48:51;26.63;;;13.13;;
85129;SDS011;75492;49.310;20.046;2024-03-06T10:53:53;23.88;;;10.77;;
85129;SDS011;75492;49.310;20.046;2024-03-06T10:59:00;28.23;;;12.77;;
85129;SDS011;75492;49.310;20.046;2024-03-06T11:04:02;29.58;;;13.60;;
85129;SDS011;75492;49.310;20.046;2024-03-06T11:09:05;24.90;;;11.35;;
85129;SDS011;75492;49.310;20.046;2024-03-06T11:14:08;24.50;;;10.50;;
85129;SDS011;75492;49.310;20.046;2024-03-06T11:19:09;36.42;;;15.07;;
85129;SDS011;75492;49.310;20.046;2024-03-06T11:24:14;26.23;;;11.80;;
85129;SDS011;75492;49.310;20.046;2024-03-06T11:29:18;25.92;;;12.55;;
85129;SDS011;75492;49.310;20.046;2024-03-06T11:34:21;28.58;;;13.52;;
85129;SDS011;75492;49.310;20.046;2024-03-06T11:39:23;29.70;;;13.23;;
85129;SDS011;75492;49.310;20.046;2024-03-06T11:44:26;27.52;;;12.57;;
85129;SDS011;75492;49.310;20.046;2024-03-06T11:49:27;27.17;;;12.57;;
85129;SDS011;75492;49.310;20.046;2024-03-06T11:54:29;27.70;;;14.02;;
85129;SDS011;75492;49.310;20.046;2024-03-06T11:59:33;22.20;;;10.32;;
85129;SDS011;75492;49.310;20.046;2024-03-06T12:04:36;25.95;;;13.35;;
85129;SDS011;75492;49.310;20.046;2024-03-06T12:09:37;32.50;;;14.02;;
85129;SDS011;75492;49.310;20.046;2024-03-06T12:14:41;30.13;;;13.68;;
85129;SDS011;75492;49.310;20.046;2024-03-06T12:19:42;29.80;;;14.27;;
85129;SDS011;75492;49.310;20.046;2024-03-06T12:24:44;23.73;;;11.68;;
85129;SDS011;75492;49.310;20.046;2024-03-06T12:29:47;27.27;;;12.88;;
85129;SDS011;75492;49.310;20.046;2024-03-06T12:34:57;31.27;;;13.20;;
85129;SDS011;75492;49.310;20.046;2024-03-06T12:39:58;23.55;;;11.55;;
85129;SDS011;75492;49.310;20.046;2024-03-06T12:45:01;36.80;;;15.40;;
85129;SDS011;75492;49.310;20.046;2024-03-06T12:50:06;34.70;;;15.95;;
85129;SDS011;75492;49.310;20.046;2024-03-06T19:27:22;57.55;;;25.20;;
85129;SDS011;75492;49.310;20.046;2024-03-06T19:32:24;52.85;;;24.05;;
85129;SDS011;75492;49.310;20.046;2024-03-06T19:37:25;55.30;;;26.58;;
85129;SDS011;75492;49.310;20.046;2024-03-06T19:42:29;73.50;;;33.25;;
85129;SDS011;75492;49.310;20.046;2024-03-06T19:47:30;57.83;;;27.80;;
85129;SDS011;75492;49.310;20.046;2024-03-06T19:52:36;54.63;;;24.92;;
